createdAt,value
2018-09-15T00:01:36.927Z,99.90
2018-09-15T00:04:07.262Z,99.90
2018-09-15T00:06:37.323Z,99.90
2018-09-15T00:09:09.800Z,99.90
2018-09-15T00:11:39.825Z,99.90
2018-09-15T00:14:09.867Z,99.90
2018-09-15T00:16:39.845Z,99.90
2018-09-15T00:19:09.955Z,99.90
2018-09-15T00:21:40.343Z,99.90
2018-09-15T00:24:10.664Z,99.90
2018-09-15T00:26:41.841Z,99.90
2018-09-15T00:29:12.518Z,99.90
2018-09-15T00:31:43.549Z,99.90
2018-09-15T00:34:14.424Z,99.90
2018-09-15T00:36:45.499Z,99.90
2018-09-15T00:39:17.883Z,99.90
2018-09-15T00:41:49.056Z,99.90
2018-09-15T00:44:20.216Z,99.90
2018-09-15T00:46:51.288Z,99.90
2018-09-15T00:49:23.111Z,99.90
2018-09-15T00:51:53.830Z,99.90
2018-09-15T00:54:24.548Z,99.90
2018-09-15T00:56:55.796Z,99.90
2018-09-15T00:59:26.791Z,99.90
2018-09-15T01:01:57.586Z,99.90
2018-09-15T01:04:27.989Z,99.90
2018-09-15T01:06:59.596Z,99.90
2018-09-15T01:09:30.790Z,99.90
2018-09-15T01:12:01.328Z,99.90
2018-09-15T01:14:31.482Z,99.90
2018-09-15T01:17:01.878Z,99.90
2018-09-15T01:19:32.674Z,99.90
2018-09-15T01:22:03.870Z,99.90
2018-09-15T01:24:34.928Z,99.90
2018-09-15T01:27:05.946Z,99.90
2018-09-15T01:29:37.469Z,99.90
2018-09-15T01:32:08.667Z,99.90
2018-09-15T01:34:39.391Z,99.90
2018-09-15T01:37:10.628Z,99.90
2018-09-15T01:39:42.949Z,99.90
2018-09-15T01:42:13.740Z,99.90
2018-09-15T01:44:44.389Z,99.90
2018-09-15T01:47:15.262Z,99.90
2018-09-15T01:49:46.884Z,99.90
2018-09-15T01:52:17.791Z,99.90
2018-09-15T01:54:48.190Z,99.90
2018-09-15T01:57:19.092Z,99.90
2018-09-15T01:59:49.460Z,99.90
2018-09-15T02:02:19.825Z,99.90
2018-09-15T02:04:50.795Z,99.90
2018-09-15T02:07:21.699Z,99.90
2018-09-15T02:09:53.232Z,99.90
2018-09-15T02:12:25.093Z,99.90
2018-09-15T02:14:56.081Z,99.90
2018-09-15T02:17:27.414Z,99.90
2018-09-15T02:19:58.349Z,99.90
2018-09-15T02:22:29.395Z,99.90
2018-09-15T02:25:01.134Z,99.90
2018-09-15T02:27:32.787Z,99.90
2018-09-15T02:30:03.928Z,99.90
2018-09-15T02:32:34.994Z,99.90
2018-09-15T02:35:06.222Z,99.90
2018-09-15T02:37:36.971Z,99.90
2018-09-15T02:40:08.149Z,99.90
2018-09-15T02:42:38.835Z,99.90
2018-09-15T02:45:09.841Z,99.90
2018-09-15T02:47:40.791Z,99.90
2018-09-15T02:50:11.351Z,99.90
2018-09-15T02:52:41.750Z,99.90
2018-09-15T02:55:12.609Z,99.90
2018-09-15T02:57:42.737Z,99.90
2018-09-15T03:00:12.989Z,99.90
2018-09-15T03:02:43.800Z,99.90
2018-09-15T03:05:14.709Z,99.90
2018-09-15T03:07:45.038Z,99.90
2018-09-15T03:10:15.769Z,99.90
2018-09-15T03:12:46.268Z,99.90
2018-09-15T03:15:17.223Z,99.90
2018-09-15T03:17:47.711Z,99.90
2018-09-15T03:20:18.545Z,99.90
2018-09-15T03:22:49.469Z,99.90
2018-09-15T03:25:20.326Z,99.90
2018-09-15T03:27:51.828Z,99.90
2018-09-15T03:30:22.381Z,99.90
2018-09-15T03:32:52.554Z,99.90
2018-09-15T03:35:23.863Z,99.90
2018-09-15T03:37:54.246Z,99.90
2018-09-15T03:40:24.995Z,99.90
2018-09-15T03:42:56.289Z,99.90
2018-09-15T03:45:27.974Z,99.90
2018-09-15T03:47:58.794Z,99.90
2018-09-15T03:50:29.198Z,99.90
2018-09-15T03:53:00.695Z,99.90
2018-09-15T03:55:31.624Z,99.90
2018-09-15T03:58:02.921Z,99.90
2018-09-15T04:00:33.790Z,99.90
2018-09-15T04:03:04.706Z,99.90
2018-09-15T04:05:34.948Z,99.90
2018-09-15T04:08:05.852Z,99.90
2018-09-15T04:10:36.489Z,99.90
2018-09-15T04:13:07.856Z,99.90
2018-09-15T04:15:38.149Z,99.90
2018-09-15T04:18:08.624Z,99.90
2018-09-15T04:20:39.015Z,99.90
2018-09-15T04:23:09.240Z,99.90
2018-09-15T04:25:39.910Z,99.90
2018-09-15T04:28:10.599Z,99.90
2018-09-15T04:30:42.153Z,99.90
2018-09-15T04:33:13.209Z,99.90
2018-09-15T04:35:44.406Z,99.90
2018-09-15T04:38:15.062Z,99.90
2018-09-15T04:40:46.375Z,99.90
2018-09-15T04:43:17.781Z,99.90
2018-09-15T04:45:48.522Z,99.90
2018-09-15T04:48:20.359Z,99.90
2018-09-15T04:50:51.542Z,99.90
2018-09-15T04:53:22.921Z,99.90
2018-09-15T04:55:53.909Z,99.90
2018-09-15T04:58:25.363Z,99.90
2018-09-15T05:00:56.109Z,99.90
2018-09-15T05:03:27.189Z,99.90
2018-09-15T05:05:57.912Z,99.90
2018-09-15T05:08:27.966Z,99.90
2018-09-15T05:10:58.854Z,99.90
2018-09-15T05:13:30.881Z,99.90
2018-09-15T05:16:01.841Z,99.90
2018-09-15T05:18:32.792Z,99.90
2018-09-15T05:21:03.905Z,99.90
2018-09-15T05:23:34.626Z,99.90
2018-09-15T05:26:05.879Z,99.90
2018-09-15T05:28:36.626Z,99.90
2018-09-15T05:31:07.257Z,99.90
2018-09-15T05:33:38.651Z,99.90
2018-09-15T05:36:10.434Z,99.90
2018-09-15T05:38:41.678Z,99.90
2018-09-15T05:41:12.751Z,99.90
2018-09-15T05:43:43.718Z,99.90
2018-09-15T05:46:14.195Z,99.90
2018-09-15T05:48:45.586Z,99.90
2018-09-15T05:51:15.909Z,99.90
2018-09-15T05:53:48.000Z,99.90
2018-09-15T05:56:18.085Z,99.90
2018-09-15T05:58:48.471Z,99.90
2018-09-15T06:01:19.229Z,99.90
2018-09-15T06:03:49.995Z,99.90
2018-09-15T06:06:20.699Z,99.90
2018-09-15T06:08:51.840Z,99.90
2018-09-15T06:11:22.555Z,99.90
2018-09-15T06:13:52.983Z,99.90
2018-09-15T06:16:24.323Z,99.90
2018-09-15T06:18:55.161Z,99.90
2018-09-15T06:21:25.786Z,99.90
2018-09-15T06:23:57.135Z,99.90
2018-09-15T06:26:28.496Z,99.90
2018-09-15T06:28:59.959Z,99.90
2018-09-15T06:31:31.637Z,99.90
2018-09-15T06:34:01.849Z,99.90
2018-09-15T06:36:31.858Z,99.90
2018-09-15T06:39:01.855Z,99.90
2018-09-15T06:41:31.871Z,99.90
2018-09-15T06:44:02.183Z,99.90
2018-09-15T06:46:32.543Z,99.90
2018-09-15T06:49:02.804Z,99.90
2018-09-15T06:51:32.718Z,99.90
2018-09-15T06:54:02.710Z,99.90
2018-09-15T06:56:33.206Z,99.90
2018-09-15T06:59:03.444Z,99.90
2018-09-15T07:01:33.590Z,99.90
2018-09-15T07:04:03.551Z,99.90
2018-09-15T07:06:57.975Z,99.90
2018-09-15T07:09:28.828Z,99.90
2018-09-15T07:11:59.102Z,99.90
2018-09-15T07:14:28.943Z,99.90
2018-09-15T07:16:59.148Z,99.90
2018-09-15T07:19:29.482Z,99.90
2018-09-15T07:21:59.587Z,99.90
2018-09-15T07:24:29.737Z,99.90
2018-09-15T07:26:59.857Z,99.90
2018-09-15T07:29:29.974Z,99.90
2018-09-15T07:32:00.225Z,99.90
2018-09-15T07:34:30.325Z,99.90
2018-09-15T07:37:00.803Z,99.90
2018-09-15T07:39:32.027Z,99.90
2018-09-15T07:42:02.551Z,99.90
2018-09-15T07:44:34.521Z,99.90
2018-09-15T07:47:05.553Z,99.90
2018-09-15T07:49:35.943Z,99.90
2018-09-15T07:52:21.415Z,99.90
2018-09-15T07:54:52.404Z,99.90
2018-09-15T07:57:22.821Z,99.90
2018-09-15T07:59:53.223Z,99.90
2018-09-15T08:02:24.483Z,99.90
2018-09-15T08:04:54.823Z,99.90
2018-09-15T08:07:24.795Z,99.90
2018-09-15T08:09:54.793Z,99.90
2018-09-15T08:12:24.744Z,99.90
2018-09-15T08:14:55.390Z,99.90
2018-09-15T08:17:26.227Z,99.90
2018-09-15T08:19:56.669Z,99.90
2018-09-15T08:22:27.623Z,99.90
2018-09-15T08:24:58.599Z,99.90
2018-09-15T08:27:29.562Z,99.90
2018-09-15T08:30:00.184Z,99.90
2018-09-15T08:32:31.505Z,99.90
2018-09-15T08:35:02.726Z,99.90
2018-09-15T08:37:33.918Z,99.90
2018-09-15T08:40:05.776Z,99.90
2018-09-15T08:42:37.216Z,99.40
2018-09-15T08:45:08.636Z,98.60
2018-09-15T08:47:40.068Z,99.10
2018-09-15T08:50:11.226Z,97.60
2018-09-15T08:52:41.917Z,97.50
2018-09-15T08:55:12.638Z,94.40
2018-09-15T08:57:44.770Z,94.80
2018-09-15T09:00:15.353Z,93.60
2018-09-15T09:02:46.152Z,91.40
2018-09-15T09:05:16.539Z,87.60
2018-09-15T09:07:48.356Z,87.20
2018-09-15T09:10:18.922Z,84.00
2018-09-15T09:12:49.790Z,80.20
2018-09-15T09:15:21.057Z,79.20
2018-09-15T09:17:52.630Z,81.30
2018-09-15T09:20:24.443Z,84.80
2018-09-15T09:22:56.319Z,83.10
2018-09-15T09:25:27.319Z,85.10
2018-09-15T09:27:57.734Z,84.00
2018-09-15T09:30:28.358Z,86.40
2018-09-15T09:32:58.659Z,89.80
2018-09-15T09:35:28.770Z,91.20
2018-09-15T09:37:59.205Z,90.00
2018-09-15T09:40:30.060Z,90.70
2018-09-15T09:43:00.817Z,86.00
2018-09-15T09:45:31.180Z,81.70
2018-09-15T09:48:01.708Z,80.10
2018-09-15T09:50:32.090Z,77.20
2018-09-15T09:53:02.601Z,72.80
2018-09-15T09:55:32.933Z,75.20
2018-09-15T09:58:03.481Z,70.00
2018-09-15T10:00:40.118Z,66.00
2018-09-15T10:03:10.716Z,67.10
2018-09-15T10:05:41.411Z,65.90
2018-09-15T10:08:11.770Z,60.50
2018-09-15T10:10:42.471Z,59.00
2018-09-15T10:13:13.994Z,58.50
2018-09-15T10:15:45.812Z,63.50
2018-09-15T10:18:17.150Z,68.60
2018-09-15T10:20:47.747Z,70.90
2018-09-15T10:23:19.603Z,69.60
2018-09-15T10:25:51.154Z,69.30
2018-09-15T10:28:21.051Z,74.20
2018-09-15T10:30:50.983Z,65.00
2018-09-15T10:33:21.174Z,69.00
2018-09-15T10:35:52.047Z,63.70
2018-09-15T10:38:23.132Z,62.00
2018-09-15T10:40:53.677Z,60.80
2018-09-15T10:43:24.070Z,60.20
2018-09-15T10:45:54.400Z,59.60
2018-09-15T10:48:24.537Z,58.10
2018-09-15T10:50:54.715Z,58.00
2018-09-15T10:53:25.211Z,55.50
2018-09-15T10:55:56.622Z,56.20
2018-09-15T10:58:27.991Z,58.30
2018-09-15T11:01:00.212Z,62.50
2018-09-15T11:03:31.650Z,63.60
2018-09-15T11:06:02.066Z,63.10
2018-09-15T11:08:32.294Z,63.70
2018-09-15T11:11:02.928Z,64.40
2018-09-15T11:13:33.344Z,63.00
2018-09-15T11:16:04.072Z,62.80
2018-09-15T11:18:35.055Z,62.10
2018-09-15T11:21:06.566Z,61.50
2018-09-15T11:23:37.984Z,62.20
2018-09-15T11:26:09.442Z,68.50
2018-09-15T11:28:39.685Z,68.20
2018-09-15T11:31:09.943Z,72.90
2018-09-15T11:33:40.061Z,73.10
2018-09-15T11:36:10.189Z,73.40
2018-09-15T11:38:40.559Z,71.30
2018-09-15T11:41:11.112Z,70.00
2018-09-15T11:43:42.120Z,64.80
2018-09-15T11:46:12.719Z,66.50
2018-09-15T11:48:43.325Z,70.30
2018-09-15T11:51:13.712Z,68.80
2018-09-15T11:53:44.022Z,65.30
2018-09-15T11:56:13.795Z,68.00
2018-09-15T11:58:43.595Z,70.40
2018-09-15T12:01:13.804Z,73.70
2018-09-15T12:03:45.092Z,70.10
2018-09-15T12:06:15.111Z,69.00
2018-09-15T12:08:45.028Z,64.70
2018-09-15T12:11:14.956Z,65.60
2018-09-15T12:13:45.153Z,68.80
2018-09-15T12:16:15.120Z,63.40
2018-09-15T12:18:45.160Z,62.70
2018-09-15T12:21:15.214Z,61.90
2018-09-15T12:23:45.050Z,55.70
2018-09-15T12:26:15.011Z,55.80
2018-09-15T12:28:45.034Z,55.50
2018-09-15T12:31:15.460Z,57.60
2018-09-15T12:33:45.785Z,60.20
2018-09-15T12:36:16.198Z,60.10
2018-09-15T12:38:47.263Z,61.20
2018-09-15T12:41:18.373Z,64.70
2018-09-15T12:43:49.631Z,65.80
2018-09-15T12:46:20.835Z,66.80
2018-09-15T12:48:51.377Z,70.10
2018-09-15T12:51:21.479Z,67.60
2018-09-15T12:53:51.604Z,70.50
2018-09-15T12:56:21.887Z,69.50
2018-09-15T12:58:51.697Z,70.10
2018-09-15T13:01:21.879Z,71.50
2018-09-15T13:03:53.150Z,70.20
2018-09-15T13:06:23.273Z,70.00
2018-09-15T13:08:53.527Z,68.50
2018-09-15T13:11:23.348Z,71.70
2018-09-15T13:13:53.520Z,69.60
2018-09-15T13:16:23.460Z,64.80
2018-09-15T13:18:53.465Z,60.60
2018-09-15T13:21:24.302Z,59.10
2018-09-15T13:23:54.764Z,58.10
2018-09-15T13:26:25.625Z,61.10
2018-09-15T13:28:57.060Z,59.00
2018-09-15T13:31:27.341Z,58.50
2018-09-15T13:33:57.860Z,59.10
2018-09-15T13:36:28.867Z,63.80
2018-09-15T13:39:00.584Z,61.70
2018-09-15T13:41:31.987Z,64.80
2018-09-15T13:44:02.200Z,61.90
2018-09-15T13:46:33.728Z,57.80
2018-09-15T13:49:04.383Z,59.20
2018-09-15T13:51:34.865Z,58.90
2018-09-15T13:54:05.207Z,55.30
2018-09-15T13:56:35.798Z,56.70
2018-09-15T13:59:06.483Z,53.40
2018-09-15T14:01:36.417Z,53.90
2018-09-15T14:04:06.726Z,54.70
2018-09-15T14:06:37.766Z,54.60
2018-09-15T14:09:10.834Z,52.80
2018-09-15T14:11:42.122Z,53.40
2018-09-15T14:14:12.950Z,54.70
2018-09-15T14:16:43.145Z,54.50
2018-09-15T14:19:13.815Z,55.80
2018-09-15T14:21:44.850Z,52.80
2018-09-15T14:24:15.360Z,53.30
2018-09-15T14:26:48.118Z,55.00
2018-09-15T14:29:19.155Z,52.60
2018-09-15T14:31:50.548Z,49.00
2018-09-15T14:34:21.105Z,51.20
2018-09-15T14:36:51.901Z,51.20
2018-09-15T14:39:22.923Z,53.00
2018-09-15T14:41:56.263Z,54.40
2018-09-15T14:44:26.226Z,54.10
2018-09-15T14:46:56.434Z,52.60
2018-09-15T14:49:27.540Z,52.80
2018-09-15T14:51:58.049Z,53.40
2018-09-15T14:54:29.308Z,53.60
2018-09-15T14:56:59.541Z,54.40
2018-09-15T14:59:29.690Z,52.40
2018-09-15T15:01:59.537Z,52.20
2018-09-15T15:04:30.650Z,51.00
2018-09-15T15:07:02.280Z,51.80
2018-09-15T15:09:33.125Z,53.70
2018-09-15T15:12:04.076Z,54.00
2018-09-15T15:14:33.993Z,55.60
2018-09-15T15:17:04.658Z,54.60
2018-09-15T15:19:34.692Z,56.20
2018-09-15T15:22:06.130Z,54.60
2018-09-15T15:24:36.400Z,54.90
2018-09-15T15:27:06.723Z,55.90
2018-09-15T15:29:37.018Z,57.60
2018-09-15T15:32:07.331Z,57.30
2018-09-15T15:34:37.601Z,56.10
2018-09-15T15:37:08.261Z,57.80
2018-09-15T15:39:38.742Z,57.90
2018-09-15T15:42:09.502Z,56.80
2018-09-15T15:44:39.639Z,55.80
2018-09-15T15:47:09.891Z,57.10
2018-09-15T15:49:40.489Z,56.90
2018-09-15T15:52:10.717Z,57.20
2018-09-15T15:54:41.033Z,58.10
2018-09-15T15:57:12.650Z,58.70
2018-09-15T15:59:43.613Z,57.50
2018-09-15T16:02:13.993Z,59.50
2018-09-15T16:04:44.631Z,58.80
2018-09-15T16:07:15.190Z,56.80
2018-09-15T16:09:45.489Z,57.60
2018-09-15T16:12:15.382Z,58.50
2018-09-15T16:14:45.749Z,58.90
2018-09-15T16:17:16.818Z,61.20
2018-09-15T16:19:47.236Z,62.10
2018-09-15T16:22:17.315Z,64.20
2018-09-15T16:24:47.540Z,63.70
2018-09-15T16:27:18.132Z,65.50
2018-09-15T16:29:48.410Z,67.20
2018-09-15T16:32:18.872Z,68.20
2018-09-15T16:34:49.548Z,68.40
2018-09-15T16:37:19.482Z,70.60
2018-09-15T16:39:50.559Z,70.70
2018-09-15T16:42:21.970Z,71.90
2018-09-15T16:44:52.080Z,72.40
2018-09-15T16:47:22.575Z,72.90
2018-09-15T16:49:53.468Z,76.50
2018-09-15T16:52:23.452Z,72.90
2018-09-15T16:54:53.447Z,74.30
2018-09-15T16:57:23.491Z,77.90
2018-09-15T16:59:53.919Z,76.20
2018-09-15T17:02:24.307Z,77.40
2018-09-15T17:04:54.688Z,75.50
2018-09-15T17:07:25.204Z,78.60
2018-09-15T17:09:55.472Z,81.00
2018-09-15T17:12:25.844Z,81.70
2018-09-15T17:14:56.190Z,81.50
2018-09-15T17:17:26.457Z,84.30
2018-09-15T17:19:57.509Z,85.50
2018-09-15T17:22:27.361Z,83.90
2018-09-15T17:24:59.301Z,84.30
2018-09-15T17:27:30.214Z,85.20
2018-09-15T17:30:01.385Z,87.90
2018-09-15T17:32:32.798Z,87.70
2018-09-15T17:35:03.926Z,90.30
2018-09-15T17:37:35.119Z,90.70
2018-09-15T17:40:06.312Z,92.10
2018-09-15T17:42:37.140Z,91.90
2018-09-15T17:45:08.148Z,91.70
2018-09-15T17:47:38.444Z,90.70
2018-09-15T17:50:09.517Z,92.20
2018-09-15T17:52:41.066Z,92.70
2018-09-15T17:55:12.324Z,92.30
2018-09-15T17:57:43.888Z,92.90
2018-09-15T18:00:15.122Z,94.40
2018-09-15T18:02:45.881Z,95.30
2018-09-15T18:05:16.932Z,97.00
2018-09-15T18:07:48.154Z,97.50
2018-09-15T18:10:19.543Z,98.20
2018-09-15T18:12:49.751Z,98.90
2018-09-15T18:15:20.393Z,98.90
2018-09-15T18:17:51.139Z,98.50
2018-09-15T18:20:22.470Z,99.90
2018-09-15T18:22:54.136Z,96.10
2018-09-15T18:25:25.103Z,98.40
2018-09-15T18:27:56.784Z,99.70
2018-09-15T18:30:27.990Z,99.90
2018-09-15T18:32:59.159Z,99.90
2018-09-15T18:35:29.897Z,99.90
2018-09-15T18:38:00.591Z,99.90
2018-09-15T18:40:31.912Z,99.90
2018-09-15T18:43:03.635Z,99.90
2018-09-15T18:45:34.508Z,99.90
2018-09-15T18:48:05.870Z,99.90
2018-09-15T18:50:36.934Z,99.90
2018-09-15T18:53:08.294Z,99.90
2018-09-15T18:55:38.789Z,99.90
2018-09-15T18:58:10.095Z,99.90
2018-09-15T19:00:40.910Z,99.90
2018-09-15T19:03:15.948Z,99.90
2018-09-15T19:05:47.933Z,99.90
2018-09-15T19:08:18.890Z,99.90
2018-09-15T19:10:49.507Z,99.90
2018-09-15T19:13:20.302Z,99.90
2018-09-15T19:15:50.811Z,99.90
2018-09-15T19:18:21.188Z,99.90
2018-09-15T19:20:51.866Z,99.90
2018-09-15T19:23:22.830Z,99.90
2018-09-15T19:25:53.216Z,99.90
2018-09-15T19:28:24.464Z,99.90
2018-09-15T19:30:56.069Z,99.90
2018-09-15T19:33:27.265Z,99.90
2018-09-15T19:35:58.714Z,99.90
2018-09-15T19:38:30.628Z,99.90
2018-09-15T19:41:02.318Z,99.90
2018-09-15T19:43:33.025Z,99.90
2018-09-15T19:46:03.640Z,99.90
2018-09-15T19:48:34.119Z,99.90
2018-09-15T19:51:05.331Z,99.90
2018-09-15T19:53:36.206Z,99.90
2018-09-15T19:56:08.139Z,99.90
2018-09-15T19:58:40.047Z,99.90
2018-09-15T20:01:10.601Z,99.90
2018-09-15T20:03:41.463Z,99.90
2018-09-15T20:06:11.935Z,99.90
2018-09-15T20:08:42.508Z,99.90
2018-09-15T20:11:12.897Z,99.90
2018-09-15T20:13:43.320Z,99.90
2018-09-15T20:16:12.148Z,99.90
2018-09-15T20:18:41.474Z,99.90
2018-09-15T20:21:10.040Z,99.90
2018-09-15T20:23:40.950Z,99.90
2018-09-15T20:26:11.542Z,99.90
2018-09-15T20:28:42.430Z,99.90
2018-09-15T20:31:13.759Z,99.90
2018-09-15T20:33:43.877Z,99.90
2018-09-15T20:36:14.591Z,99.90
2018-09-15T20:38:46.628Z,99.90
2018-09-15T20:41:17.958Z,99.90
2018-09-15T20:43:49.908Z,99.90
2018-09-15T20:46:21.463Z,99.90
2018-09-15T20:48:52.286Z,99.90
2018-09-15T20:51:23.001Z,99.90
2018-09-15T20:53:54.444Z,99.90
2018-09-15T20:56:26.361Z,99.90
2018-09-15T20:58:57.106Z,99.90
2018-09-15T21:01:28.040Z,99.90
2018-09-15T21:03:59.199Z,99.90
2018-09-15T21:06:30.866Z,99.90
2018-09-15T21:09:01.628Z,99.90
2018-09-15T21:11:32.146Z,99.90
2018-09-15T21:14:02.389Z,99.90
2018-09-15T21:16:32.835Z,99.90
2018-09-15T21:19:03.445Z,99.90
2018-09-15T21:21:35.227Z,99.90
2018-09-15T21:24:06.410Z,99.90
2018-09-15T21:26:38.076Z,99.90
2018-09-15T21:29:08.469Z,99.90
2018-09-15T21:31:38.985Z,99.90
2018-09-15T21:34:25.630Z,99.90
2018-09-15T21:36:56.334Z,99.90
2018-09-15T21:39:27.670Z,99.90
2018-09-15T21:42:06.586Z,99.90
2018-09-15T21:44:37.047Z,99.90
2018-09-15T21:47:10.106Z,99.90
2018-09-15T21:49:40.896Z,99.90
2018-09-15T21:52:12.834Z,99.90
2018-09-15T21:54:43.363Z,99.90
2018-09-15T21:57:13.938Z,99.90
2018-09-15T21:59:44.496Z,99.90
2018-09-15T22:02:16.088Z,99.90
2018-09-15T22:04:47.087Z,99.90
2018-09-15T22:07:18.046Z,99.90
2018-09-15T22:09:48.844Z,99.90
2018-09-15T22:12:19.371Z,99.90
2018-09-15T22:14:50.390Z,99.90
2018-09-15T22:17:20.469Z,99.90
2018-09-15T22:19:51.352Z,99.90
2018-09-15T22:22:22.462Z,99.90
2018-09-15T22:24:53.037Z,99.90
2018-09-15T22:27:24.408Z,99.90
2018-09-15T22:29:55.965Z,99.90
2018-09-15T22:32:27.427Z,99.90
2018-09-15T22:34:58.748Z,99.90
2018-09-15T22:37:29.714Z,99.90
2018-09-15T22:39:59.973Z,99.90
2018-09-15T22:42:30.364Z,99.90
2018-09-15T22:45:00.589Z,99.90
2018-09-15T22:47:30.822Z,99.90
2018-09-15T22:50:01.248Z,99.90
2018-09-15T22:52:31.606Z,99.90
2018-09-15T22:55:02.012Z,99.90
2018-09-15T22:57:32.630Z,99.90
2018-09-15T23:00:03.175Z,99.90
2018-09-15T23:02:33.775Z,99.90
2018-09-15T23:05:04.124Z,99.90
2018-09-15T23:07:34.709Z,99.90
2018-09-15T23:10:05.553Z,99.90
2018-09-15T23:12:35.660Z,99.90
2018-09-15T23:15:06.575Z,99.90
2018-09-15T23:17:37.378Z,99.90
2018-09-15T23:20:07.746Z,99.90
2018-09-15T23:22:38.070Z,99.90
2018-09-15T23:25:08.461Z,99.90
2018-09-15T23:27:38.970Z,99.90
2018-09-15T23:30:13.075Z,99.90
2018-09-15T23:32:43.746Z,99.90
2018-09-15T23:35:14.279Z,99.90
2018-09-15T23:37:45.311Z,99.90
2018-09-15T23:40:15.829Z,99.90
2018-09-15T23:42:46.030Z,99.90
2018-09-15T23:45:16.235Z,99.90
2018-09-15T23:47:47.172Z,99.90
2018-09-15T23:50:17.417Z,99.90
2018-09-15T23:52:47.642Z,99.90
2018-09-15T23:55:17.834Z,99.90
2018-09-15T23:57:48.953Z,99.90
